createdAt,value
2023-02-26T00:03:54.293Z,99853.84
2023-02-26T00:07:41.980Z,99852.52
2023-02-26T00:11:29.852Z,99858.57
2023-02-26T00:15:15.055Z,99865.26
2023-02-26T00:18:52.848Z,99876.23
2023-02-26T00:22:41.568Z,99882.48
2023-02-26T00:26:31.006Z,99882.45
2023-02-26T00:30:21.071Z,99889.31
2023-02-26T00:33:54.533Z,99888.77
2023-02-26T00:37:56.202Z,99894.12
2023-02-26T00:41:44.780Z,99896.71
2023-02-26T00:45:35.710Z,99904.56
2023-02-26T00:49:15.902Z,99907.65
2023-02-26T00:53:02.538Z,99913.05
2023-02-26T00:56:51.148Z,99918.50
2023-02-26T01:00:38.637Z,99918.39
2023-02-26T01:04:10.582Z,99921.64
2023-02-26T01:07:49.005Z,99924.02
2023-02-26T01:11:17.471Z,99924.84
2023-02-26T01:14:47.333Z,99927.27
2023-02-26T01:18:20.657Z,99927.34
2023-02-26T01:22:14.511Z,99924.20
2023-02-26T01:25:49.350Z,99926.22
2023-02-26T01:29:37.186Z,99930.51
2023-02-26T01:33:30.198Z,99937.50
2023-02-26T01:37:28.482Z,99940.77
2023-02-26T01:41:30.255Z,99950.17
2023-02-26T01:45:22.664Z,99955.65
2023-02-26T01:49:16.341Z,99965.67
2023-02-26T01:53:24.487Z,99966.79
2023-02-26T01:57:16.129Z,99974.95
2023-02-26T02:00:53.211Z,99978.64
2023-02-26T02:04:42.222Z,99981.08
2023-02-26T02:08:23.583Z,99985.65
2023-02-26T02:12:25.539Z,99985.16
2023-02-26T02:16:39.172Z,99995.80
2023-02-26T02:21:08.344Z,99995.15
2023-02-26T02:24:54.213Z,100008.73
2023-02-26T02:28:55.616Z,100013.79
2023-02-26T02:32:49.745Z,100014.39
2023-02-26T02:36:35.653Z,100022.08
2023-02-26T02:40:26.964Z,100032.66
2023-02-26T02:44:19.373Z,100038.15
2023-02-26T02:48:13.446Z,100036.02
2023-02-26T02:52:07.761Z,100041.61
2023-02-26T02:55:39.635Z,100048.17
2023-02-26T02:59:17.673Z,100057.39
2023-02-26T03:03:14.968Z,100062.20
2023-02-26T03:06:52.178Z,100062.83
2023-02-26T03:10:39.999Z,100079.23
2023-02-26T03:14:27.854Z,100081.91
2023-02-26T03:18:34.844Z,100084.15
2023-02-26T03:22:18.751Z,100090.79
2023-02-26T03:26:13.192Z,100096.02
2023-02-26T03:30:06.590Z,100103.21
2023-02-26T03:33:45.247Z,100106.90
2023-02-26T03:37:37.488Z,100114.64
2023-02-26T03:41:23.344Z,100118.27
2023-02-26T03:45:03.549Z,100123.38
2023-02-26T03:48:49.439Z,100133.45
2023-02-26T03:52:40.518Z,100135.14
2023-02-26T03:56:38.827Z,100146.02
2023-02-26T04:00:27.829Z,100156.16
2023-02-26T04:04:20.598Z,100160.89
2023-02-26T04:08:08.136Z,100164.69
2023-02-26T04:11:58.295Z,100173.58
2023-02-26T04:15:46.007Z,100177.98
2023-02-26T04:19:33.910Z,100184.35
2023-02-26T04:23:11.144Z,100188.19
2023-02-26T04:26:58.542Z,100192.39
2023-02-26T04:30:46.113Z,100192.70
2023-02-26T04:34:24.398Z,100193.50
2023-02-26T04:38:11.875Z,100198.81
2023-02-26T04:41:47.925Z,100204.10
2023-02-26T04:45:35.416Z,100207.20
2023-02-26T04:49:23.025Z,100210.19
2023-02-26T04:53:10.718Z,100215.70
2023-02-26T04:56:58.159Z,100220.98
2023-02-26T05:00:48.936Z,100223.77
2023-02-26T05:04:38.658Z,100233.59
2023-02-26T05:08:26.454Z,100237.75
2023-02-26T05:12:14.055Z,100246.30
2023-02-26T05:16:01.580Z,100246.40
2023-02-26T05:19:49.343Z,100251.66
2023-02-26T05:23:37.472Z,100258.94
2023-02-26T05:27:25.266Z,100262.79
2023-02-26T05:31:01.643Z,100266.81
2023-02-26T05:34:41.772Z,100274.24
2023-02-26T05:38:18.017Z,100280.14
2023-02-26T05:41:58.784Z,100285.54
2023-02-26T05:45:31.489Z,100286.92
2023-02-26T05:49:10.581Z,100292.19
2023-02-26T05:52:49.516Z,100306.23
2023-02-26T05:56:36.160Z,100310.83
2023-02-26T06:00:11.840Z,100320.73
2023-02-26T06:03:46.906Z,100323.45
2023-02-26T06:07:24.708Z,100329.28
2023-02-26T06:11:06.027Z,100334.29
2023-02-26T06:14:53.406Z,100342.42
2023-02-26T06:18:35.268Z,100347.16
2023-02-26T06:22:22.952Z,100348.67
2023-02-26T06:26:10.541Z,100359.31
2023-02-26T06:29:50.483Z,100366.04
2023-02-26T06:33:21.076Z,100373.27
2023-02-26T06:36:59.557Z,100376.48
2023-02-26T06:40:37.575Z,100379.38
2023-02-26T06:44:25.167Z,100384.96
2023-02-26T06:48:06.719Z,100390.32
2023-02-26T06:51:54.615Z,100395.92
2023-02-26T06:55:31.179Z,100398.23
2023-02-26T06:59:09.381Z,100404.60
2023-02-26T07:02:53.587Z,100407.86
2023-02-26T07:06:27.428Z,100415.92
2023-02-26T07:10:10.061Z,100419.68
2023-02-26T07:13:57.925Z,100429.59
2023-02-26T07:17:44.283Z,100434.50
2023-02-26T07:21:17.151Z,100440.45
2023-02-26T07:25:04.915Z,100448.16
2023-02-26T07:28:41.059Z,100456.39
2023-02-26T07:32:18.210Z,100461.98
2023-02-26T07:36:06.523Z,100469.02
2023-02-26T07:39:54.705Z,100480.16
2023-02-26T07:43:37.070Z,100479.05
2023-02-26T07:47:24.582Z,100478.22
2023-02-26T07:51:12.294Z,100488.65
2023-02-26T07:54:49.051Z,100484.23
2023-02-26T07:58:36.635Z,100489.45
2023-02-26T08:02:24.767Z,100493.45
2023-02-26T08:06:05.026Z,100501.72
2023-02-26T08:09:45.625Z,100504.54
2023-02-26T08:13:20.801Z,100515.27
2023-02-26T08:17:07.104Z,100526.02
2023-02-26T08:20:41.548Z,100535.90
2023-02-26T08:24:16.377Z,100545.05
2023-02-26T08:27:57.927Z,100551.53
2023-02-26T08:31:45.788Z,100559.85
2023-02-26T08:35:33.263Z,100561.98
2023-02-26T08:39:21.049Z,100567.39
2023-02-26T08:43:01.480Z,100577.02
2023-02-26T08:46:49.369Z,100582.66
2023-02-26T08:50:35.585Z,100592.44
2023-02-26T08:54:23.508Z,100601.43
2023-02-26T08:57:59.523Z,100607.61
2023-02-26T09:01:35.973Z,100619.79
2023-02-26T09:05:23.033Z,100622.27
2023-02-26T09:08:53.685Z,100625.62
2023-02-26T09:12:30.227Z,100639.67
2023-02-26T09:16:00.925Z,100640.63
2023-02-26T09:19:34.364Z,100647.33
2023-02-26T09:23:22.284Z,100653.03
2023-02-26T09:27:01.282Z,100656.33
2023-02-26T09:30:42.545Z,100660.34
2023-02-26T09:34:30.089Z,100665.48
2023-02-26T09:38:04.063Z,100673.72
2023-02-26T09:41:58.663Z,100685.18
2023-02-26T09:45:49.868Z,100687.92
2023-02-26T09:49:49.272Z,100692.44
2023-02-26T09:53:24.014Z,100704.05
2023-02-26T09:57:27.234Z,100708.65
2023-02-26T10:01:11.648Z,100712.86
2023-02-26T10:05:08.873Z,100728.29
2023-02-26T10:08:53.089Z,100725.85
2023-02-26T10:12:23.322Z,100739.35
2023-02-26T10:15:59.386Z,100732.65
2023-02-26T10:19:49.185Z,100733.21
2023-02-26T10:23:29.696Z,100735.98
2023-02-26T10:27:17.386Z,100735.23
2023-02-26T10:31:03.715Z,100744.59
2023-02-26T10:34:40.332Z,100756.15
2023-02-26T10:38:31.602Z,100758.18
2023-02-26T10:42:23.337Z,100766.76
2023-02-26T10:46:23.313Z,100768.05
2023-02-26T10:50:11.754Z,100773.15
2023-02-26T10:53:56.103Z,100784.45
2023-02-26T10:57:30.119Z,100789.80
2023-02-26T11:01:21.415Z,100798.27
2023-02-26T11:05:07.238Z,100794.45
2023-02-26T11:08:54.566Z,100791.85
2023-02-26T11:12:45.465Z,100801.71
2023-02-26T11:16:33.961Z,100808.81
2023-02-26T11:20:16.662Z,100815.35
2023-02-26T11:24:07.257Z,100815.58
2023-02-26T11:27:50.018Z,100810.33
2023-02-26T11:31:28.464Z,100806.95
2023-02-26T11:35:19.268Z,100806.82
2023-02-26T11:38:59.517Z,100806.27
2023-02-26T11:42:53.868Z,100815.21
2023-02-26T11:46:32.030Z,100826.46
2023-02-26T11:50:17.922Z,100826.98
2023-02-26T11:54:19.997Z,100831.27
2023-02-26T11:58:17.939Z,100840.79
2023-02-26T12:01:48.588Z,100841.53
2023-02-26T12:05:37.153Z,100844.55
2023-02-26T12:09:16.520Z,100843.27
2023-02-26T12:13:06.315Z,100848.70
2023-02-26T12:16:50.119Z,100846.41
2023-02-26T12:20:34.073Z,100851.79
2023-02-26T12:24:42.660Z,100857.66
2023-02-26T12:28:34.123Z,100865.65
2023-02-26T12:32:36.537Z,100862.67
2023-02-26T12:36:47.985Z,100866.05
2023-02-26T12:40:38.161Z,100869.30
2023-02-26T12:44:29.594Z,100871.84
2023-02-26T12:48:34.530Z,100882.41
2023-02-26T12:52:35.682Z,100891.21
2023-02-26T12:56:43.169Z,100892.48
2023-02-26T13:00:48.384Z,100901.58
2023-02-26T13:04:47.819Z,100897.30
2023-02-26T13:08:33.566Z,100899.36
2023-02-26T13:12:32.988Z,100895.52
2023-02-26T13:16:32.786Z,100899.67
2023-02-26T13:20:12.360Z,100898.40
2023-02-26T13:23:53.605Z,100897.95
2023-02-26T13:27:35.620Z,100899.75
2023-02-26T13:31:24.091Z,100914.67
2023-02-26T13:35:23.021Z,100909.75
2023-02-26T13:39:04.881Z,100913.29
2023-02-26T13:42:48.439Z,100925.27
2023-02-26T13:46:41.568Z,100926.27
2023-02-26T13:50:36.028Z,100927.29
2023-02-26T13:54:11.857Z,100930.41
2023-02-26T13:57:54.218Z,100925.83
2023-02-26T14:01:37.096Z,100927.98
2023-02-26T14:05:12.421Z,100927.32
2023-02-26T14:08:53.812Z,100926.52
2023-02-26T14:12:43.471Z,100928.55
2023-02-26T14:16:24.818Z,100939.15
2023-02-26T14:20:20.912Z,100945.41
2023-02-26T14:23:54.161Z,100946.50
2023-02-26T14:27:40.448Z,100954.54
2023-02-26T14:31:48.313Z,100972.44
2023-02-26T14:35:33.551Z,100970.94
2023-02-26T14:39:25.466Z,100979.09
2023-02-26T14:43:07.191Z,100978.15
2023-02-26T14:46:42.291Z,100987.80
2023-02-26T14:50:40.879Z,100997.88
2023-02-26T14:54:32.518Z,100996.52
2023-02-26T14:58:18.679Z,101005.23
2023-02-26T15:02:02.355Z,101003.39
2023-02-26T15:05:54.229Z,101010.08
2023-02-26T15:09:44.495Z,101016.11
2023-02-26T15:13:43.542Z,101017.25
2023-02-26T15:17:45.922Z,101015.05
2023-02-26T15:21:34.141Z,101020.45
2023-02-26T15:25:28.949Z,101021.10
2023-02-26T15:29:00.917Z,101024.54
2023-02-26T15:32:42.976Z,101027.27
2023-02-26T15:36:24.767Z,101028.25
2023-02-26T15:39:55.173Z,101030.89
2023-02-26T15:43:31.143Z,101033.45
2023-02-26T15:47:09.455Z,101035.08
2023-02-26T15:50:56.793Z,101037.11
2023-02-26T15:54:42.693Z,101037.80
2023-02-26T15:58:30.055Z,101044.51
2023-02-26T16:02:21.585Z,101050.99
2023-02-26T16:05:56.399Z,101056.29
2023-02-26T16:09:36.337Z,101060.55
2023-02-26T16:13:26.127Z,101071.59
2023-02-26T16:16:58.892Z,101077.92
2023-02-26T16:20:46.493Z,101080.05
2023-02-26T16:24:23.285Z,101088.85
2023-02-26T16:28:16.353Z,101097.64
2023-02-26T16:31:58.812Z,101099.85
2023-02-26T16:35:39.677Z,101110.20
2023-02-26T16:39:31.609Z,101109.08
2023-02-26T16:43:33.467Z,101116.10
2023-02-26T16:47:14.198Z,101123.21
2023-02-26T16:51:07.940Z,101123.41
2023-02-26T16:55:01.823Z,101135.69
2023-02-26T16:58:41.480Z,101146.14
2023-02-26T17:02:33.016Z,101147.70
2023-02-26T17:06:23.703Z,101159.27
2023-02-26T17:10:08.998Z,101160.89
2023-02-26T17:14:08.835Z,101164.38
2023-02-26T17:17:58.621Z,101170.83
2023-02-26T17:21:29.065Z,101178.77
2023-02-26T17:25:23.318Z,101179.95
2023-02-26T17:29:02.777Z,101182.08
2023-02-26T17:32:33.763Z,101183.64
2023-02-26T17:36:24.004Z,101188.41
2023-02-26T17:40:23.999Z,101198.84
2023-02-26T17:44:01.990Z,101203.05
2023-02-26T17:47:31.966Z,101211.50
2023-02-26T17:51:16.001Z,101209.45
2023-02-26T17:54:53.149Z,101209.48
2023-02-26T17:58:30.580Z,101213.51
2023-02-26T18:02:01.311Z,101217.64
2023-02-26T18:05:54.652Z,101214.64
2023-02-26T18:09:51.116Z,101212.64
2023-02-26T18:13:29.753Z,101213.17
2023-02-26T18:17:18.061Z,101219.17
2023-02-26T18:21:01.225Z,101221.48
2023-02-26T18:24:48.628Z,101223.62
2023-02-26T18:28:26.290Z,101233.17
2023-02-26T18:32:15.075Z,101234.52
2023-02-26T18:36:20.755Z,101235.27
2023-02-26T18:39:56.673Z,101241.73
2023-02-26T18:43:34.054Z,101242.46
2023-02-26T18:47:11.981Z,101251.40
2023-02-26T18:50:50.652Z,101253.30
2023-02-26T18:54:35.222Z,101260.01
2023-02-26T18:58:23.560Z,101268.09
2023-02-26T19:02:15.441Z,101267.34
2023-02-26T19:06:05.217Z,101279.11
2023-02-26T19:09:53.668Z,101276.73
2023-02-26T19:13:36.494Z,101283.55
2023-02-26T19:17:03.915Z,101280.76
2023-02-26T19:20:34.315Z,101282.54
2023-02-26T19:24:01.940Z,101285.33
2023-02-26T19:27:41.133Z,101286.52
2023-02-26T19:31:23.153Z,101295.18
2023-02-26T19:35:12.228Z,101293.30
2023-02-26T19:38:59.769Z,101304.52
2023-02-26T19:42:48.101Z,101308.48
2023-02-26T19:46:28.570Z,101322.03
2023-02-26T19:50:18.394Z,101323.98
2023-02-26T19:53:53.446Z,101330.95
2023-02-26T19:57:41.490Z,101337.08
2023-02-26T20:01:20.848Z,101338.77
2023-02-26T20:05:06.464Z,101343.81
2023-02-26T20:08:47.689Z,101349.10
2023-02-26T20:12:35.392Z,101355.36
2023-02-26T20:16:16.974Z,101360.64
2023-02-26T20:19:53.951Z,101361.30
2023-02-26T20:23:37.712Z,101367.60
2023-02-26T20:27:14.103Z,101370.63
2023-02-26T20:30:50.820Z,101376.16
2023-02-26T20:34:27.479Z,101380.03
2023-02-26T20:38:06.473Z,101379.73
2023-02-26T20:41:44.936Z,101381.90
2023-02-26T20:45:21.460Z,101386.65
2023-02-26T20:49:11.977Z,101391.42
2023-02-26T20:52:59.818Z,101396.20
2023-02-26T20:56:33.075Z,101403.21
2023-02-26T21:00:15.897Z,101409.96
2023-02-26T21:04:04.226Z,101415.05
2023-02-26T21:07:41.041Z,101410.48
2023-02-26T21:11:36.833Z,101414.23
2023-02-26T21:15:15.860Z,101418.85
2023-02-26T21:18:51.370Z,101422.80
2023-02-26T21:22:25.678Z,101420.45
2023-02-26T21:26:04.000Z,101416.79
2023-02-26T21:29:50.638Z,101422.20
2023-02-26T21:33:32.821Z,101428.38
2023-02-26T21:37:12.823Z,101431.31
2023-02-26T21:41:00.695Z,101439.75
2023-02-26T21:44:59.884Z,101441.84
2023-02-26T21:48:51.623Z,101440.59
2023-02-26T21:52:39.349Z,101440.45
2023-02-26T21:56:27.257Z,101440.77
2023-02-26T22:00:17.905Z,101446.92
2023-02-26T22:04:05.809Z,101446.93
2023-02-26T22:07:38.119Z,101449.61
2023-02-26T22:11:05.798Z,101452.80
2023-02-26T22:14:53.964Z,101449.80
2023-02-26T22:18:35.259Z,101449.95
2023-02-26T22:22:11.594Z,101459.02
2023-02-26T22:25:44.022Z,101461.10
2023-02-26T22:29:22.890Z,101469.84
2023-02-26T22:32:59.009Z,101474.27
2023-02-26T22:36:37.511Z,101481.90
2023-02-26T22:40:17.748Z,101478.17
2023-02-26T22:44:05.802Z,101483.37
2023-02-26T22:47:53.567Z,101487.89
2023-02-26T22:51:41.114Z,101488.52
2023-02-26T22:55:28.788Z,101483.34
2023-02-26T22:59:16.457Z,101486.73
2023-02-26T23:03:04.369Z,101488.39
2023-02-26T23:06:51.920Z,101492.61
2023-02-26T23:10:39.488Z,101499.05
2023-02-26T23:14:27.835Z,101494.85
2023-02-26T23:18:15.494Z,101492.31
2023-02-26T23:22:03.105Z,101495.52
2023-02-26T23:25:45.529Z,101498.80
2023-02-26T23:29:33.186Z,101500.52
2023-02-26T23:33:21.401Z,101498.37
2023-02-26T23:37:09.353Z,101506.52
2023-02-26T23:40:58.236Z,101511.25
2023-02-26T23:44:39.108Z,101513.40
2023-02-26T23:48:16.802Z,101515.30
2023-02-26T23:51:53.534Z,101510.91
2023-02-26T23:55:43.170Z,101511.58
2023-02-26T23:59:22.181Z,101511.56
